Time;durP1;ratioP1;P1;durP2;ratioP2;P2;SDS_P1;SDS_P2;PMS_P1;PMS_P2;Temp;Humidity;BMP_temperature;BMP_pressure;BME280_temperature;BME280_humidity;BME280_pressure;Samples;Min_cycle;Max_cycle;Signal;HPM_P1;HPM_P2
2022/04/19 00:00:16;;;;;;;0.00;0.00;;;;;;;;;;5086569;28;20425;-57
2022/04/19 00:02:41;;;;;;;0.00;0.00;;;;;;;;;;5088591;28;20503;-58
2022/04/19 00:05:06;;;;;;;0.00;0.00;;;;;;;;;;5086443;28;20027;-57
2022/04/19 00:07:32;;;;;;;0.00;0.00;;;;;;;;;;5088392;28;20059;-57
2022/04/19 00:09:57;;;;;;;0.00;0.00;;;;;;;;;;5088188;28;20048;-56
2022/04/19 00:12:22;;;;;;;0.00;0.00;;;;;;;;;;5088299;28;20531;-54
2022/04/19 00:14:47;;;;;;;0.00;0.00;;;;;;;;;;5089003;28;20384;-55
2022/04/19 00:17:13;;;;;;;0.00;0.00;;;;;;;;;;5088708;28;20100;-56
2022/04/19 00:19:38;;;;;;;0.00;0.00;;;;;;;;;;5088582;28;20855;-58
2022/04/19 00:22:03;;;;;;;0.00;0.00;;;;;;;;;;5088191;28;20035;-57
2022/04/19 00:24:29;;;;;;;0.00;0.00;;;;;;;;;;5088515;28;20038;-58
2022/04/19 00:26:55;;;;;;;0.00;0.00;;;;;;;;;;5087873;28;20051;-57
2022/04/19 00:29:20;;;;;;;0.00;0.00;;;;;;;;;;5089058;28;20032;-57
2022/04/19 00:31:45;;;;;;;0.00;0.00;;;;;;;;;;5087298;28;20063;-58
2022/04/19 00:34:10;;;;;;;0.00;0.00;;;;;;;;;;5086772;28;20016;-58
2022/04/19 00:36:37;;;;;;;0.00;0.00;;;;;;;;;;5087645;28;20403;-57
2022/04/19 00:39:03;;;;;;;0.00;0.00;;;;;;;;;;5088088;28;20016;-57
2022/04/19 00:41:28;;;;;;;0.10;0.10;;;;;;;;;;5087543;28;20020;-57
2022/04/19 00:43:53;;;;;;;0.00;0.00;;;;;;;;;;5087690;28;20396;-58
2022/04/19 00:46:19;;;;;;;0.00;0.00;;;;;;;;;;5088523;28;20047;-57
2022/04/19 00:48:44;;;;;;;0.00;0.00;;;;;;;;;;5089059;28;20465;-58
2022/04/19 00:51:11;;;;;;;0.10;0.10;;;;;;;;;;5087598;28;20051;-55
2022/04/19 00:53:36;;;;;;;0.00;0.00;;;;;;;;;;5088006;28;20380;-57
2022/04/19 00:56:02;;;;;;;0.00;0.00;;;;;;;;;;5087904;28;20028;-57
2022/04/19 00:58:27;;;;;;;0.00;0.00;;;;;;;;;;5087402;28;20012;-57
2022/04/19 01:00:52;;;;;;;0.00;0.00;;;;;;;;;;5087714;28;20020;-57
2022/04/19 01:03:18;;;;;;;1.60;1.10;;;;;;;;;;5085973;28;20024;-58
2022/04/19 01:05:44;;;;;;;0.00;0.00;;;;;;;;;;5086782;28;20193;-58
2022/04/19 01:08:10;;;;;;;0.00;0.00;;;;;;;;;;5088261;28;20437;-59
2022/04/19 01:10:35;;;;;;;0.00;0.00;;;;;;;;;;5086573;28;20052;-59
2022/04/19 01:13:18;;;;;;;0.00;0.00;;;;;;;;;;5087776;28;20027;-58
2022/04/19 01:15:52;;;;;;;0.00;0.00;;;;;;;;;;5087090;28;20618;-57
2022/04/19 01:18:22;;;;;;;0.00;0.00;;;;;;;;;;5088077;28;20077;-58
2022/04/19 01:20:50;;;;;;;0.03;0.03;;;;;;;;;;5085978;28;20023;-57
2022/04/19 01:23:18;;;;;;;0.00;0.00;;;;;;;;;;5088471;28;20039;-58
2022/04/19 01:25:43;;;;;;;0.00;0.00;;;;;;;;;;5088463;28;20069;-57
2022/04/19 01:28:08;;;;;;;0.00;0.00;;;;;;;;;;5088604;28;20800;-55
2022/04/19 01:30:34;;;;;;;0.00;0.00;;;;;;;;;;5088610;28;20078;-52
2022/04/19 01:32:59;;;;;;;0.00;0.00;;;;;;;;;;5088023;28;20035;-56
2022/04/19 01:35:24;;;;;;;0.00;0.00;;;;;;;;;;5088710;28;20028;-57
2022/04/19 01:37:51;;;;;;;0.00;0.00;;;;;;;;;;5088896;28;20028;-54
2022/04/19 01:40:16;;;;;;;0.00;0.00;;;;;;;;;;5089075;28;20023;-55
2022/04/19 01:42:43;;;;;;;0.00;0.00;;;;;;;;;;5088648;28;20441;-55
2022/04/19 01:45:10;;;;;;;0.25;0.25;;;;;;;;;;5089365;28;20016;-55
2022/04/19 01:47:35;;;;;;;0.00;0.00;;;;;;;;;;5088465;28;20198;-55
2022/04/19 01:50:00;;;;;;;0.00;0.00;;;;;;;;;;5087594;28;20497;-56
2022/04/19 01:52:25;;;;;;;0.00;0.00;;;;;;;;;;5087899;28;20020;-53
2022/04/19 01:54:51;;;;;;;0.00;0.00;;;;;;;;;;5086523;28;20023;-56
2022/04/19 01:57:16;;;;;;;0.00;0.00;;;;;;;;;;5087419;28;20157;-54
2022/04/19 01:59:41;;;;;;;0.00;0.00;;;;;;;;;;5086039;28;20024;-56
2022/04/19 02:02:07;;;;;;;0.00;0.00;;;;;;;;;;5086593;28;20036;-57
2022/04/19 02:04:32;;;;;;;0.00;0.00;;;;;;;;;;5085577;28;20599;-55
2022/04/19 02:06:57;;;;;;;0.00;0.00;;;;;;;;;;5088218;28;20032;-55
2022/04/19 02:09:22;;;;;;;0.00;0.00;;;;;;;;;;5085899;28;20020;-56
2022/04/19 02:11:47;;;;;;;0.05;0.05;;;;;;;;;;5087206;28;20030;-54
2022/04/19 02:14:13;;;;;;;0.00;0.00;;;;;;;;;;5085683;28;20129;-55
2022/04/19 02:16:38;;;;;;;0.00;0.00;;;;;;;;;;5087325;28;20016;-55
2022/04/19 02:19:04;;;;;;;0.00;0.00;;;;;;;;;;5085124;28;20020;-58
2022/04/19 02:21:30;;;;;;;0.00;0.00;;;;;;;;;;5087006;28;20477;-57
2022/04/19 02:23:55;;;;;;;0.00;0.00;;;;;;;;;;5084076;28;20032;-56
2022/04/19 02:26:23;;;;;;;0.00;0.00;;;;;;;;;;5087051;28;20026;-58
2022/04/19 02:28:49;;;;;;;0.00;0.00;;;;;;;;;;5085364;28;20373;-55
2022/04/19 02:31:14;;;;;;;0.00;0.00;;;;;;;;;;5086955;28;20036;-57
2022/04/19 02:33:40;;;;;;;0.00;0.00;;;;;;;;;;5085901;28;20115;-56
2022/04/19 02:36:05;;;;;;;0.00;0.00;;;;;;;;;;5086632;28;20030;-57
2022/04/19 02:38:30;;;;;;;0.00;0.00;;;;;;;;;;5085584;28;20039;-57
2022/04/19 02:40:55;;;;;;;0.00;0.00;;;;;;;;;;5086970;28;20019;-55
2022/04/19 02:43:21;;;;;;;0.00;0.00;;;;;;;;;;5086183;28;20024;-50
2022/04/19 02:45:46;;;;;;;0.00;0.00;;;;;;;;;;5087862;28;20157;-51
2022/04/19 02:48:12;;;;;;;0.00;0.00;;;;;;;;;;5087059;28;20040;-48
2022/04/19 02:50:41;;;;;;;0.00;0.00;;;;;;;;;;5086629;28;20558;-49
2022/04/19 02:53:06;;;;;;;0.00;0.00;;;;;;;;;;5088618;28;20035;-48
2022/04/19 02:55:32;;;;;;;0.00;0.00;;;;;;;;;;5086825;28;20020;-47
2022/04/19 02:57:57;;;;;;;0.00;0.00;;;;;;;;;;5088153;28;20081;-46
2022/04/19 03:00:23;;;;;;;0.00;0.00;;;;;;;;;;5092025;28;20095;-49
2022/04/19 03:02:49;;;;;;;0.00;0.00;;;;;;;;;;5090654;28;20787;-50
2022/04/19 03:05:15;;;;;;;0.00;0.00;;;;;;;;;;5090655;28;20111;-49
2022/04/19 03:07:40;;;;;;;0.00;0.00;;;;;;;;;;5091991;28;20106;-48
2022/04/19 03:10:06;;;;;;;0.00;0.00;;;;;;;;;;5090902;28;20111;-50
2022/04/19 03:12:31;;;;;;;0.00;0.00;;;;;;;;;;5090856;28;20479;-48
2022/04/19 03:14:56;;;;;;;0.00;0.00;;;;;;;;;;5091262;28;20035;-45
2022/04/19 03:17:22;;;;;;;0.00;0.00;;;;;;;;;;5089862;28;20032;-47
2022/04/19 03:19:47;;;;;;;0.00;0.00;;;;;;;;;;5089243;28;20510;-53
2022/04/19 03:22:12;;;;;;;0.00;0.00;;;;;;;;;;5089657;28;20111;-49
2022/04/19 03:30:06;;;;;;;0.00;0.00;;;;;;;;;;5090548;28;20544;-50
2022/04/19 03:32:32;;;;;;;0.00;0.00;;;;;;;;;;5091706;28;20020;-51
2022/04/19 03:34:58;;;;;;;0.00;0.00;;;;;;;;;;5090252;28;20024;-48
2022/04/19 03:37:23;;;;;;;0.00;0.00;;;;;;;;;;5091334;28;20027;-51
2022/04/19 03:39:48;;;;;;;0.00;0.00;;;;;;;;;;5089157;28;20023;-50
2022/04/19 03:42:13;;;;;;;0.00;0.00;;;;;;;;;;5091078;28;20104;-49
2022/04/19 03:44:38;;;;;;;0.00;0.00;;;;;;;;;;5089834;28;20020;-47
2022/04/19 03:47:09;;;;;;;0.00;0.00;;;;;;;;;;5091314;28;20044;-51
2022/04/19 03:49:39;;;;;;;0.00;0.00;;;;;;;;;;5088186;28;20035;-51
2022/04/19 03:52:05;;;;;;;0.00;0.00;;;;;;;;;;5090519;28;20060;-46
2022/04/19 03:54:34;;;;;;;0.00;0.00;;;;;;;;;;5091420;28;20611;-47
2022/04/19 03:56:59;;;;;;;0.00;0.00;;;;;;;;;;5088914;28;20020;-49
2022/04/19 03:59:24;;;;;;;0.00;0.00;;;;;;;;;;5088080;28;20362;-48
2022/04/19 04:01:50;;;;;;;0.00;0.00;;;;;;;;;;5090305;28;20059;-49
2022/04/19 04:04:15;;;;;;;0.00;0.00;;;;;;;;;;5090944;28;20067;-48
2022/04/19 04:06:40;;;;;;;0.00;0.00;;;;;;;;;;5089526;28;20475;-46
2022/04/19 04:09:05;;;;;;;0.00;0.00;;;;;;;;;;5090175;28;20028;-49
2022/04/19 04:11:32;;;;;;;0.60;0.60;;;;;;;;;;5089717;28;20040;-48
2022/04/19 04:13:57;;;;;;;0.00;0.00;;;;;;;;;;5090135;28;20026;-45
2022/04/19 04:16:22;;;;;;;0.00;0.00;;;;;;;;;;5091157;28;20015;-51
2022/04/19 04:18:47;;;;;;;0.00;0.00;;;;;;;;;;5088174;28;20023;-46
2022/04/19 04:21:13;;;;;;;0.00;0.00;;;;;;;;;;5089154;28;20035;-49
2022/04/19 04:23:38;;;;;;;0.00;0.00;;;;;;;;;;5089264;28;20043;-50
2022/04/19 04:26:03;;;;;;;0.00;0.00;;;;;;;;;;5089366;28;20453;-49
2022/04/19 04:28:28;;;;;;;0.00;0.00;;;;;;;;;;5088647;28;20111;-46
2022/04/19 04:30:53;;;;;;;0.00;0.00;;;;;;;;;;5090092;28;20097;-47
2022/04/19 04:33:19;;;;;;;0.00;0.00;;;;;;;;;;5088554;28;20016;-50
2022/04/19 04:35:44;;;;;;;0.00;0.00;;;;;;;;;;5089495;28;20089;-46
2022/04/19 04:38:09;;;;;;;0.00;0.00;;;;;;;;;;5088698;28;20024;-46
2022/04/19 04:40:34;;;;;;;0.00;0.00;;;;;;;;;;5090258;28;20027;-47
2022/04/19 04:43:00;;;;;;;0.30;0.30;;;;;;;;;;5089018;28;20028;-50
2022/04/19 04:45:26;;;;;;;0.00;0.00;;;;;;;;;;5089874;28;20055;-47
2022/04/19 04:50:35;;;;;;;0.00;0.00;;;;;;;;;;5088164;28;20857;-48
2022/04/19 04:53:00;;;;;;;1.27;1.27;;;;;;;;;;5087736;28;20020;-50
2022/04/19 04:55:25;;;;;;;0.00;0.00;;;;;;;;;;5089272;28;20028;-46
2022/04/19 04:57:56;;;;;;;0.00;0.00;;;;;;;;;;5087046;28;20422;-50
2022/04/19 05:00:21;;;;;;;0.00;0.00;;;;;;;;;;5089541;28;20020;-46
2022/04/19 05:02:46;;;;;;;0.00;0.00;;;;;;;;;;5088678;28;20028;-50
2022/04/19 05:05:11;;;;;;;0.00;0.00;;;;;;;;;;5088545;28;20490;-50
2022/04/19 05:07:37;;;;;;;0.00;0.00;;;;;;;;;;5088357;28;20128;-48
2022/04/19 05:10:03;;;;;;;0.10;0.10;;;;;;;;;;5088698;28;20048;-47
2022/04/19 05:12:28;;;;;;;0.00;0.00;;;;;;;;;;5087503;28;20140;-48
2022/04/19 05:14:53;;;;;;;0.00;0.00;;;;;;;;;;5087699;28;20035;-49
2022/04/19 05:17:18;;;;;;;0.00;0.00;;;;;;;;;;5087716;28;20100;-49
2022/04/19 05:19:43;;;;;;;0.00;0.00;;;;;;;;;;5087412;28;20028;-48
2022/04/19 05:22:09;;;;;;;0.00;0.00;;;;;;;;;;5087262;28;20026;-50
2022/04/19 05:24:34;;;;;;;0.00;0.00;;;;;;;;;;5088669;28;20104;-51
2022/04/19 05:26:59;;;;;;;0.00;0.00;;;;;;;;;;5087776;28;20631;-50
2022/04/19 05:29:24;;;;;;;0.00;0.00;;;;;;;;;;5088986;28;20035;-50
2022/04/19 05:31:50;;;;;;;0.00;0.00;;;;;;;;;;5087699;28;20495;-46
2022/04/19 05:34:15;;;;;;;0.00;0.00;;;;;;;;;;5088149;28;20028;-51
2022/04/19 05:36:41;;;;;;;0.00;0.00;;;;;;;;;;5087643;28;20035;-49
2022/04/19 05:39:06;;;;;;;0.00;0.00;;;;;;;;;;5087749;28;20419;-49
2022/04/19 05:41:31;;;;;;;0.00;0.00;;;;;;;;;;5088375;28;20095;-49
2022/04/19 05:43:56;;;;;;;0.00;0.00;;;;;;;;;;5087710;28;20103;-48
2022/04/19 05:46:21;;;;;;;0.00;0.00;;;;;;;;;;5087943;28;20047;-49
2022/04/19 05:48:47;;;;;;;0.00;0.00;;;;;;;;;;5087436;28;20384;-51
2022/04/19 05:51:12;;;;;;;0.00;0.00;;;;;;;;;;5085612;28;20072;-47
2022/04/19 05:53:38;;;;;;;0.00;0.00;;;;;;;;;;5087954;28;20081;-50
2022/04/19 05:56:04;;;;;;;0.00;0.00;;;;;;;;;;5086552;28;20040;-49
2022/04/19 05:58:29;;;;;;;0.00;0.00;;;;;;;;;;5088861;28;20077;-46
2022/04/19 06:00:54;;;;;;;0.00;0.00;;;;;;;;;;5087323;28;20063;-52
2022/04/19 06:06:05;;;;;;;0.00;0.00;;;;;;;;;;5088332;28;20077;-48
2022/04/19 06:08:30;;;;;;;0.00;0.00;;;;;;;;;;5088230;28;20024;-46
2022/04/19 06:10:55;;;;;;;0.00;0.00;;;;;;;;;;5087923;28;20039;-51
2022/04/19 06:13:21;;;;;;;0.00;0.00;;;;;;;;;;5086959;28;20016;-50
2022/04/19 06:15:46;;;;;;;0.00;0.00;;;;;;;;;;5087193;28;20012;-47
2022/04/19 06:18:11;;;;;;;0.00;0.00;;;;;;;;;;5087219;28;20063;-49
2022/04/19 06:20:36;;;;;;;0.00;0.00;;;;;;;;;;5082825;28;20035;-51
2022/04/19 06:23:02;;;;;;;0.20;0.20;;;;;;;;;;5083713;28;20098;-51
2022/04/19 06:25:27;;;;;;;0.00;0.00;;;;;;;;;;5086589;28;20023;-53
2022/04/19 06:27:56;;;;;;;0.00;0.00;;;;;;;;;;5084861;28;20024;-51
2022/04/19 06:30:21;;;;;;;0.00;0.00;;;;;;;;;;5086918;28;20031;-50
2022/04/19 06:32:47;;;;;;;0.00;0.00;;;;;;;;;;5085984;28;20020;-49
2022/04/19 06:35:12;;;;;;;0.00;0.00;;;;;;;;;;5090040;28;20020;-51
2022/04/19 06:37:37;;;;;;;0.80;0.80;;;;;;;;;;5089456;28;20032;-51
2022/04/19 06:40:04;;;;;;;0.00;0.00;;;;;;;;;;5091521;28;20540;-50
2022/04/19 06:42:29;;;;;;;0.00;0.00;;;;;;;;;;5085984;28;20039;-51
2022/04/19 06:44:54;;;;;;;0.00;0.00;;;;;;;;;;5087228;28;20027;-50
2022/04/19 06:47:20;;;;;;;0.00;0.00;;;;;;;;;;5089240;28;20385;-52
2022/04/19 06:49:45;;;;;;;0.00;0.00;;;;;;;;;;5090220;28;20028;-53
2022/04/19 06:52:10;;;;;;;0.20;0.20;;;;;;;;;;5088087;28;20484;-50
2022/04/19 06:54:35;;;;;;;0.00;0.00;;;;;;;;;;5088850;28;20096;-47
2022/04/19 06:57:01;;;;;;;0.00;0.00;;;;;;;;;;5089476;28;20035;-50
2022/04/19 06:59:26;;;;;;;0.10;0.10;;;;;;;;;;5090312;28;20085;-51
2022/04/19 07:01:52;;;;;;;0.25;0.25;;;;;;;;;;5088735;28;20016;-53
2022/04/19 07:04:17;;;;;;;0.00;0.00;;;;;;;;;;5090991;28;20016;-51
2022/04/19 07:06:42;;;;;;;0.00;0.00;;;;;;;;;;5089696;28;20063;-51
2022/04/19 07:09:07;;;;;;;0.00;0.00;;;;;;;;;;5088601;28;20020;-52
2022/04/19 07:11:34;;;;;;;0.00;0.00;;;;;;;;;;5088541;28;20661;-51
2022/04/19 07:13:59;;;;;;;0.43;0.43;;;;;;;;;;5087258;28;20020;-53
2022/04/19 07:16:24;;;;;;;0.00;0.00;;;;;;;;;;5087001;28;20122;-53
2022/04/19 07:18:50;;;;;;;0.00;0.00;;;;;;;;;;5089824;28;20020;-51
2022/04/19 07:26:45;;;;;;;0.30;0.10;;;;;;;;;;5087552;28;20035;-54
2022/04/19 07:29:15;;;;;;;0.00;0.00;;;;;;;;;;5088451;28;20046;-52
2022/04/19 07:31:41;;;;;;;0.00;0.00;;;;;;;;;;5088541;28;20124;-51
2022/04/19 07:34:07;;;;;;;0.00;0.00;;;;;;;;;;5088887;28;20047;-54
2022/04/19 07:36:35;;;;;;;0.03;0.03;;;;;;;;;;5087948;28;20445;-53
2022/04/19 07:39:00;;;;;;;0.00;0.00;;;;;;;;;;5088175;28;20020;-54
2022/04/19 07:41:26;;;;;;;0.00;0.00;;;;;;;;;;5088325;28;20032;-52
2022/04/19 07:43:51;;;;;;;0.13;0.13;;;;;;;;;;5088252;28;20035;-51
2022/04/19 07:46:17;;;;;;;0.68;0.40;;;;;;;;;;5088788;28;20464;-52
2022/04/19 07:48:42;;;;;;;0.00;0.00;;;;;;;;;;5084766;28;20330;-52
2022/04/19 07:51:08;;;;;;;0.00;0.00;;;;;;;;;;5087759;28;20040;-53
2022/04/19 07:53:33;;;;;;;0.00;0.00;;;;;;;;;;5087328;28;20016;-53
2022/04/19 07:55:58;;;;;;;0.00;0.00;;;;;;;;;;5085627;28;20012;-53
2022/04/19 07:58:24;;;;;;;0.00;0.00;;;;;;;;;;5088873;28;20019;-53
2022/04/19 08:00:49;;;;;;;0.00;0.00;;;;;;;;;;5087737;28;20032;-51
2022/04/19 08:03:14;;;;;;;0.30;0.30;;;;;;;;;;5088406;28;20028;-52
2022/04/19 08:05:40;;;;;;;0.00;0.00;;;;;;;;;;5087277;28;20062;-53
2022/04/19 08:08:05;;;;;;;0.00;0.00;;;;;;;;;;5088543;28;20028;-54
2022/04/19 08:10:30;;;;;;;0.10;0.10;;;;;;;;;;5088320;28;20039;-54
2022/04/19 08:12:55;;;;;;;0.10;0.10;;;;;;;;;;5087747;28;20024;-52
2022/04/19 08:15:21;;;;;;;0.00;0.00;;;;;;;;;;5088551;28;20038;-51
2022/04/19 08:17:46;;;;;;;0.00;0.00;;;;;;;;;;5084987;28;20016;-53
2022/04/19 08:20:14;;;;;;;0.00;0.00;;;;;;;;;;5088010;28;20031;-53
2022/04/19 08:22:40;;;;;;;0.00;0.00;;;;;;;;;;5088535;28;20027;-53
2022/04/19 08:25:06;;;;;;;0.00;0.00;;;;;;;;;;5088162;28;20024;-52
2022/04/19 08:27:31;;;;;;;0.85;0.47;;;;;;;;;;5087387;28;20481;-54
2022/04/19 08:29:56;;;;;;;0.00;0.00;;;;;;;;;;5086936;28;20035;-53
2022/04/19 08:32:22;;;;;;;0.00;0.00;;;;;;;;;;5087334;28;20482;-53
2022/04/19 08:34:47;;;;;;;0.00;0.00;;;;;;;;;;5087144;28;20448;-52
2022/04/19 08:37:12;;;;;;;0.00;0.00;;;;;;;;;;5086542;28;20849;-52
2022/04/19 08:39:38;;;;;;;0.00;0.00;;;;;;;;;;5089074;28;20379;-51
2022/04/19 08:42:06;;;;;;;0.00;0.00;;;;;;;;;;5086606;28;20044;-51
2022/04/19 08:44:35;;;;;;;0.00;0.00;;;;;;;;;;5088807;28;20020;-50
2022/04/19 08:47:03;;;;;;;0.00;0.00;;;;;;;;;;5085153;28;20081;-53
2022/04/19 08:49:28;;;;;;;0.60;0.60;;;;;;;;;;5088525;28;20036;-49
2022/04/19 08:51:54;;;;;;;0.00;0.00;;;;;;;;;;5084923;28;20044;-53
2022/04/19 08:59:47;;;;;;;0.00;0.00;;;;;;;;;;5086636;28;20443;-53
2022/04/19 09:02:19;;;;;;;0.57;0.43;;;;;;;;;;5085227;28;20036;-52
2022/04/19 09:04:44;;;;;;;0.00;0.00;;;;;;;;;;5086576;28;20266;-53
2022/04/19 09:07:10;;;;;;;0.00;0.00;;;;;;;;;;5087727;28;20420;-51
2022/04/19 09:09:37;;;;;;;0.00;0.00;;;;;;;;;;5087629;28;20107;-53
2022/04/19 09:12:07;;;;;;;1.38;1.27;;;;;;;;;;5086652;28;20153;-52
2022/04/19 09:14:32;;;;;;;0.10;0.10;;;;;;;;;;5084998;28;20027;-52
2022/04/19 09:17:05;;;;;;;0.30;0.30;;;;;;;;;;5086380;28;20425;-53
2022/04/19 09:19:30;;;;;;;0.00;0.00;;;;;;;;;;5085970;28;20377;-51
2022/04/19 09:21:56;;;;;;;0.00;0.00;;;;;;;;;;5087457;28;20115;-51
2022/04/19 09:24:22;;;;;;;0.15;0.15;;;;;;;;;;5085595;28;20115;-53
2022/04/19 09:26:50;;;;;;;0.00;0.00;;;;;;;;;;5086045;28;20376;-51
2022/04/19 09:29:25;;;;;;;0.00;0.00;;;;;;;;;;5085332;28;20365;-49
2022/04/19 09:31:54;;;;;;;0.10;0.10;;;;;;;;;;5086636;28;20028;-52
2022/04/19 09:34:19;;;;;;;;;;;;;;;;;;5086425;28;20449;-50
2022/04/19 09:36:45;;;;;;;1.15;1.15;;;;;;;;;;5087148;28;20415;-51
2022/04/19 09:39:26;;;;;;;0.13;0.13;;;;;;;;;;5085612;28;20055;-49
2022/04/19 09:42:04;;;;;;;0.00;0.00;;;;;;;;;;5086944;28;20032;-52
2022/04/19 09:44:29;;;;;;;0.00;0.00;;;;;;;;;;5085848;28;20028;-51
2022/04/19 09:47:04;;;;;;;0.70;0.47;;;;;;;;;;5086708;28;20076;-53
2022/04/19 09:49:45;;;;;;;0.35;0.30;;;;;;;;;;5087963;28;20450;-52
2022/04/19 09:52:33;;;;;;;0.00;0.00;;;;;;;;;;5087241;28;20036;-50
2022/04/19 09:55:09;;;;;;;2.63;1.35;;;;;;;;;;5075774;28;20427;-53
2022/04/19 09:57:36;;;;;;;2.10;1.95;;;;;;;;;;5085640;28;20090;-50
2022/04/19 10:00:03;;;;;;;0.00;0.00;;;;;;;;;;5086590;28;20031;-52
2022/04/19 10:08:13;;;;;;;1.27;1.17;;;;;;;;;;5089077;28;20077;-47
2022/04/19 10:10:39;;;;;;;0.38;0.38;;;;;;;;;;5089905;28;20028;-51
2022/04/19 10:13:05;;;;;;;0.00;0.00;;;;;;;;;;5089301;28;20378;-50
2022/04/19 10:15:34;;;;;;;0.77;0.77;;;;;;;;;;5090142;28;20757;-50
2022/04/19 10:17:59;;;;;;;5.30;4.72;;;;;;;;;;5090000;28;20039;-51
2022/04/19 10:20:31;;;;;;;0.00;0.00;;;;;;;;;;5090529;28;20032;-48
2022/04/19 10:23:01;;;;;;;0.00;0.00;;;;;;;;;;5088382;28;20488;-51
2022/04/19 10:25:34;;;;;;;2.30;2.17;;;;;;;;;;5092344;28;20031;-47
2022/04/19 10:28:02;;;;;;;1.25;1.20;;;;;;;;;;5093239;28;20020;-49
2022/04/19 10:30:32;;;;;;;0.93;0.93;;;;;;;;;;5093125;28;20027;-51
2022/04/19 10:32:57;;;;;;;;;;;;;;;;;;5089641;28;20036;-50
2022/04/19 10:35:22;;;;;;;8.77;0.33;;;;;;;;;;5090159;28;19913;-46
2022/04/19 10:38:07;;;;;;;0.90;0.57;;;;;;;;;;5091508;28;20588;-51
2022/04/19 10:40:49;;;;;;;0.00;0.00;;;;;;;;;;5090804;28;20024;-47
2022/04/19 10:43:14;;;;;;;0.00;0.00;;;;;;;;;;5091140;28;20504;-50
2022/04/19 10:45:40;;;;;;;0.00;0.00;;;;;;;;;;5090151;28;20119;-52
2022/04/19 10:48:06;;;;;;;0.25;0.25;;;;;;;;;;5084674;28;20024;-51
2022/04/19 10:50:36;;;;;;;0.45;0.45;;;;;;;;;;5088607;28;20079;-51
2022/04/19 10:53:04;;;;;;;2.42;2.22;;;;;;;;;;5090054;28;20050;-51
2022/04/19 10:55:31;;;;;;;0.73;0.73;;;;;;;;;;5090423;28;20106;-53
2022/04/19 10:58:21;;;;;;;0.88;0.63;;;;;;;;;;5089430;28;20027;-52
2022/04/19 11:00:56;;;;;;;0.00;0.00;;;;;;;;;;5087536;28;20438;-50
2022/04/19 11:03:33;;;;;;;1.05;0.90;;;;;;;;;;5089596;28;20095;-53
2022/04/19 11:05:59;;;;;;;1.88;1.58;;;;;;;;;;5089691;28;20042;-48
2022/04/19 11:08:24;;;;;;;0.05;0.05;;;;;;;;;;5090195;28;20024;-52
2022/04/19 11:11:31;;;;;;;1.15;1.15;;;;;;;;;;5088775;28;20745;-51
2022/04/19 11:14:15;;;;;;;1.63;1.48;;;;;;;;;;5086266;28;20036;-49
2022/04/19 11:16:40;;;;;;;0.88;0.75;;;;;;;;;;5089200;28;20024;-50
2022/04/19 11:19:13;;;;;;;0.90;0.90;;;;;;;;;;5088657;28;20077;-52
2022/04/19 11:21:47;;;;;;;0.00;0.00;;;;;;;;;;5089701;28;20023;-50
2022/04/19 11:24:13;;;;;;;1.10;1.05;;;;;;;;;;5090124;28;20036;-50
2022/04/19 11:26:41;;;;;;;0.22;0.22;;;;;;;;;;5089896;28;20137;-49
2022/04/19 11:29:17;;;;;;;4.20;4.10;;;;;;;;;;5089069;28;20024;-48
2022/04/19 11:31:43;;;;;;;2.67;2.47;;;;;;;;;;5089493;28;20020;-49
2022/04/19 11:34:11;;;;;;;31.77;3.13;;;;;;;;;;5089088;28;20039;-52
2022/04/19 11:36:37;;;;;;;1.07;1.07;;;;;;;;;;5088675;28;20079;-51
2022/04/19 11:39:02;;;;;;;2.63;0.70;;;;;;;;;;5087413;28;20290;-54
2022/04/19 11:46:49;;;;;;;0.00;0.00;;;;;;;;;;5087502;28;20016;-52
2022/04/19 11:49:34;;;;;;;0.00;0.00;;;;;;;;;;5090308;28;20111;-53
2022/04/19 11:52:10;;;;;;;0.20;0.20;;;;;;;;;;5087328;28;20158;-52
2022/04/19 11:54:35;;;;;;;0.65;0.65;;;;;;;;;;5089657;28;20425;-51
2022/04/19 11:57:03;;;;;;;0.63;0.63;;;;;;;;;;5088415;28;20020;-52
2022/04/19 11:59:36;;;;;;;1.30;0.93;;;;;;;;;;5090370;28;20186;-48
2022/04/19 12:02:03;;;;;;;0.00;0.00;;;;;;;;;;5088012;28;20735;-53
2022/04/19 12:04:31;;;;;;;0.10;0.10;;;;;;;;;;5089395;28;20012;-48
2022/04/19 12:07:03;;;;;;;0.00;0.00;;;;;;;;;;5087717;28;20031;-50
2022/04/19 12:09:31;;;;;;;0.00;0.00;;;;;;;;;;5087713;28;20457;-48
2022/04/19 12:11:57;;;;;;;0.00;0.00;;;;;;;;;;5087648;28;20032;-51
2022/04/19 12:14:25;;;;;;;0.00;0.00;;;;;;;;;;5088813;28;20012;-53
2022/04/19 12:16:54;;;;;;;0.50;0.50;;;;;;;;;;5088272;28;20105;-48
2022/04/19 12:19:30;;;;;;;0.35;0.35;;;;;;;;;;5088661;28;20024;-49
2022/04/19 12:21:56;;;;;;;0.13;0.13;;;;;;;;;;5087630;28;20028;-48
2022/04/19 12:24:25;;;;;;;3.22;0.70;;;;;;;;;;5088638;28;20023;-48
2022/04/19 12:26:50;;;;;;;;;;;;;;;;;;5087907;28;20020;-54
2022/04/19 12:29:16;;;;;;;0.80;0.80;;;;;;;;;;5089081;28;20033;-51
2022/04/19 12:31:44;;;;;;;0.10;0.10;;;;;;;;;;5087891;28;20418;-49
2022/04/19 12:34:11;;;;;;;0.52;0.52;;;;;;;;;;5087738;28;20022;-51
2022/04/19 12:36:40;;;;;;;1.45;0.52;;;;;;;;;;5087241;28;20051;-53
2022/04/19 12:39:05;;;;;;;0.60;0.30;;;;;;;;;;5087632;28;20111;-49
2022/04/19 12:41:33;;;;;;;1.60;0.97;;;;;;;;;;5088844;28;20127;-51
2022/04/19 12:44:02;;;;;;;0.20;0.05;;;;;;;;;;5087439;28;20258;-50
2022/04/19 12:46:27;;;;;;;1.10;0.75;;;;;;;;;;5088375;28;20456;-50
2022/04/19 12:48:53;;;;;;;0.20;0.20;;;;;;;;;;5087392;28;20028;-52
2022/04/19 12:51:24;;;;;;;0.20;0.20;;;;;;;;;;5087724;28;20056;-50
2022/04/19 12:54:02;;;;;;;0.00;0.00;;;;;;;;;;5087359;28;20012;-50
2022/04/19 12:56:37;;;;;;;0.00;0.00;;;;;;;;;;5088701;28;20017;-51
2022/04/19 12:59:02;;;;;;;0.10;0.10;;;;;;;;;;5087380;28;20467;-50
2022/04/19 13:01:27;;;;;;;0.03;0.03;;;;;;;;;;5088809;28;20016;-49
2022/04/19 13:03:53;;;;;;;5.57;0.85;;;;;;;;;;5086081;28;20039;-50
2022/04/19 13:14:30;;;;;;;2.05;0.60;;;;;;;;;;5086875;28;20026;-50
2022/04/19 13:16:55;;;;;;;0.08;0.08;;;;;;;;;;5087631;28;21496;-49
2022/04/19 13:19:20;;;;;;;0.00;0.00;;;;;;;;;;5087371;28;20016;-52
2022/04/19 13:21:46;;;;;;;0.00;0.00;;;;;;;;;;5087499;28;20606;-50
2022/04/19 13:24:11;;;;;;;0.20;0.20;;;;;;;;;;5086807;28;20024;-51
2022/04/19 13:26:36;;;;;;;1.23;0.10;;;;;;;;;;5087782;28;20020;-53
2022/04/19 13:29:01;;;;;;;0.00;0.00;;;;;;;;;;5086491;28;20254;-51
2022/04/19 13:31:27;;;;;;;0.28;0.28;;;;;;;;;;5088356;28;20019;-54
2022/04/19 13:33:52;;;;;;;0.30;0.30;;;;;;;;;;5084649;28;20070;-49
2022/04/19 13:36:20;;;;;;;0.00;0.00;;;;;;;;;;5087662;28;20016;-50
2022/04/19 13:38:46;;;;;;;1.02;0.52;;;;;;;;;;5086537;28;20055;-52
2022/04/19 13:41:11;;;;;;;1.75;0.70;;;;;;;;;;5086857;28;20408;-52
2022/04/19 13:43:39;;;;;;;0.20;0.13;;;;;;;;;;5085811;28;20024;-49
2022/04/19 13:46:05;;;;;;;0.95;0.45;;;;;;;;;;5086987;28;20742;-48
2022/04/19 13:48:30;;;;;;;0.20;0.20;;;;;;;;;;5086548;28;20020;-52
2022/04/19 13:50:55;;;;;;;0.00;0.00;;;;;;;;;;5086374;28;20075;-50
2022/04/19 13:53:21;;;;;;;0.85;0.85;;;;;;;;;;5084822;28;20039;-51
2022/04/19 13:55:46;;;;;;;0.15;0.15;;;;;;;;;;5086477;28;20044;-51
2022/04/19 13:58:11;;;;;;;0.52;0.52;;;;;;;;;;5085588;28;20028;-48
2022/04/19 14:00:37;;;;;;;0.38;0.38;;;;;;;;;;5086968;28;20015;-50
2022/04/19 14:03:02;;;;;;;1.13;0.30;;;;;;;;;;5085610;28;20120;-51
2022/04/19 14:05:29;;;;;;;0.00;0.00;;;;;;;;;;5085427;28;20053;-48
2022/04/19 14:07:54;;;;;;;0.00;0.00;;;;;;;;;;5085670;28;20095;-48
2022/04/19 14:10:19;;;;;;;0.30;0.30;;;;;;;;;;5086726;28;20513;-47
2022/04/19 14:12:45;;;;;;;0.20;0.20;;;;;;;;;;5085661;28;20047;-51
2022/04/19 14:15:10;;;;;;;0.40;0.40;;;;;;;;;;5085857;28;20111;-50
2022/04/19 14:17:35;;;;;;;0.35;0.35;;;;;;;;;;5087452;28;20388;-50
2022/04/19 14:20:01;;;;;;;0.08;0.08;;;;;;;;;;5086233;28;20362;-51
2022/04/19 14:22:26;;;;;;;0.20;0.20;;;;;;;;;;5087279;28;20522;-49
2022/04/19 14:24:51;;;;;;;0.30;0.30;;;;;;;;;;5087088;28;20841;-47
2022/04/19 14:27:17;;;;;;;0.40;0.40;;;;;;;;;;5085143;28;20028;-50
2022/04/19 14:35:09;;;;;;;8.30;0.47;;;;;;;;;;5084794;28;20396;-51
2022/04/19 14:37:35;;;;;;;0.43;0.28;;;;;;;;;;5087893;28;20028;-52
2022/04/19 14:40:00;;;;;;;0.15;0.15;;;;;;;;;;5086568;28;20540;-52
2022/04/19 14:42:28;;;;;;;4.35;0.57;;;;;;;;;;5087001;28;20032;-50
2022/04/19 14:44:54;;;;;;;0.30;0.30;;;;;;;;;;5085488;28;20020;-52
2022/04/19 14:47:19;;;;;;;0.00;0.00;;;;;;;;;;5087101;28;20035;-52
2022/04/19 14:49:44;;;;;;;0.00;0.00;;;;;;;;;;5086468;28;20052;-51
2022/04/19 14:52:19;;;;;;;0.55;0.30;;;;;;;;;;5086366;28;20119;-51
2022/04/19 14:54:48;;;;;;;0.00;0.00;;;;;;;;;;5087932;28;20012;-51
2022/04/19 14:57:14;;;;;;;1.08;0.68;;;;;;;;;;5089251;28;20115;-49
2022/04/19 14:59:39;;;;;;;0.52;0.52;;;;;;;;;;5089419;28;20120;-54
2022/04/19 15:02:05;;;;;;;0.10;0.10;;;;;;;;;;5089785;28;20027;-49
2022/04/19 15:04:31;;;;;;;0.50;0.50;;;;;;;;;;5089960;28;20089;-51
2022/04/19 15:06:56;;;;;;;0.00;0.00;;;;;;;;;;5089408;28;20028;-49
2022/04/19 15:09:21;;;;;;;0.10;0.00;;;;;;;;;;5089380;28;20338;-51
2022/04/19 15:11:46;;;;;;;0.00;0.00;;;;;;;;;;5089835;28;20027;-50
2022/04/19 15:14:12;;;;;;;1.08;1.00;;;;;;;;;;5088494;28;20031;-52
2022/04/19 15:16:37;;;;;;;0.47;0.47;;;;;;;;;;5090113;28;20566;-50
2022/04/19 15:19:03;;;;;;;0.30;0.30;;;;;;;;;;5089168;28;20041;-51
2022/04/19 15:21:28;;;;;;;0.25;0.25;;;;;;;;;;5090988;28;20381;-47
2022/04/19 15:23:53;;;;;;;0.00;0.00;;;;;;;;;;5087463;28;20023;-51
2022/04/19 15:26:18;;;;;;;1.38;0.10;;;;;;;;;;5090143;28;20031;-49